createdAt,value
2022-07-25T16:01:52.220Z,7.25
2022-07-25T16:03:24.107Z,6.00
2022-07-25T16:04:55.883Z,6.40
2022-07-25T16:06:27.900Z,6.80
2022-07-25T16:08:01.233Z,7.00
2022-07-25T16:09:33.068Z,5.40
2022-07-25T16:11:05.073Z,5.20
2022-07-25T16:12:37.238Z,5.80
2022-07-25T16:14:11.148Z,5.00
2022-07-25T16:15:42.977Z,6.00
2022-07-25T16:17:14.988Z,7.60
2022-07-25T16:18:49.352Z,7.00
2022-07-25T16:20:21.228Z,6.60
2022-07-25T16:21:53.112Z,4.20
2022-07-25T16:23:28.101Z,6.00
2022-07-25T16:25:03.067Z,6.80
2022-07-25T16:26:34.880Z,7.00
2022-07-25T16:28:07.033Z,4.40
2022-07-25T16:29:39.266Z,7.40
2022-07-25T16:31:11.524Z,5.60
2022-07-25T16:32:43.445Z,7.00
2022-07-25T16:34:15.231Z,7.00
2022-07-25T16:35:47.085Z,5.60
2022-07-25T16:37:22.355Z,6.00
2022-07-25T16:38:54.114Z,5.00
2022-07-25T16:40:30.756Z,6.00
2022-07-25T16:42:02.879Z,6.80
2022-07-25T16:43:34.645Z,1.00
2022-07-25T16:45:07.145Z,6.00
2022-07-25T16:46:38.952Z,7.00
2022-07-25T16:48:12.632Z,4.60
2022-07-25T16:49:44.592Z,6.80
2022-07-25T16:51:16.456Z,4.40
2022-07-25T16:52:48.635Z,7.40
2022-07-25T16:54:20.528Z,7.40
2022-07-25T16:55:52.246Z,7.00
2022-07-25T16:57:25.011Z,7.00
2022-07-25T16:58:57.066Z,6.20
2022-07-25T17:00:29.090Z,5.00
2022-07-25T17:02:01.017Z,6.80
2022-07-25T17:03:32.887Z,6.00
2022-07-25T17:05:06.302Z,6.80
2022-07-25T17:06:38.142Z,6.60
2022-07-25T17:08:09.934Z,6.00
2022-07-25T17:09:41.918Z,4.00
2022-07-25T17:11:14.333Z,6.00
2022-07-25T17:12:46.122Z,7.00
2022-07-25T17:14:18.077Z,6.80
2022-07-25T17:15:50.616Z,7.20
2022-07-25T17:17:22.538Z,7.00
2022-07-25T17:18:56.935Z,1.00
2022-07-25T17:20:28.995Z,5.20
2022-07-25T17:22:01.974Z,6.40
2022-07-25T17:23:34.812Z,10.00
2022-07-25T17:25:07.499Z,19.20
2022-07-25T17:26:40.327Z,15.20
2022-07-25T17:28:12.106Z,25.80
2022-07-25T17:29:44.118Z,29.00
2022-07-25T17:31:16.034Z,42.50
2022-07-25T17:32:49.175Z,30.80
2022-07-25T17:34:21.829Z,37.60
2022-07-25T17:35:53.772Z,34.00
2022-07-25T17:37:27.764Z,32.60
2022-07-25T17:39:04.916Z,37.80
2022-07-25T17:40:36.986Z,40.80
2022-07-25T17:42:09.040Z,35.20
2022-07-25T17:43:41.004Z,34.20
2022-07-25T17:45:13.016Z,36.00
2022-07-25T17:46:45.062Z,34.60
2022-07-25T17:48:16.989Z,34.60
2022-07-25T17:49:50.046Z,35.20
2022-07-25T17:51:23.349Z,34.40
2022-07-25T17:52:55.683Z,34.20
2022-07-25T17:54:27.606Z,33.20
2022-07-25T17:55:59.592Z,33.80
2022-07-25T17:57:31.369Z,32.00
2022-07-25T17:59:03.201Z,32.60
2022-07-25T18:00:36.475Z,29.20
2022-07-25T18:02:08.348Z,31.80
2022-07-25T18:03:40.871Z,29.40
2022-07-25T18:05:13.415Z,28.60
2022-07-25T18:06:48.453Z,33.00
2022-07-25T18:08:23.869Z,32.00
2022-07-25T18:09:55.670Z,31.80
2022-07-25T18:11:27.840Z,30.00
2022-07-25T18:13:01.977Z,28.60
2022-07-25T18:14:33.962Z,29.80
2022-07-25T18:16:06.776Z,29.20
2022-07-25T18:17:39.148Z,32.00
2022-07-25T18:19:12.691Z,28.00
2022-07-25T18:20:44.615Z,30.60
2022-07-25T18:22:19.236Z,28.80
2022-07-25T18:23:51.543Z,31.20
2022-07-25T18:25:23.419Z,29.80
2022-07-25T18:26:55.116Z,30.60
2022-07-25T18:28:28.287Z,31.20
2022-07-25T18:30:05.919Z,28.20
2022-07-25T18:31:37.821Z,28.60
2022-07-25T18:33:09.903Z,28.00
2022-07-25T18:34:41.705Z,28.20
2022-07-25T18:36:13.388Z,28.20
2022-07-25T18:37:46.616Z,27.40
2022-07-25T18:39:18.386Z,29.40
2022-07-25T18:41:06.574Z,26.00
2022-07-25T18:42:43.515Z,22.60
2022-07-25T18:44:15.450Z,27.20
2022-07-25T18:45:48.005Z,26.00
2022-07-25T18:47:23.294Z,28.00
2022-07-25T18:48:56.649Z,29.00
2022-07-25T18:50:28.421Z,28.80
2022-07-25T18:52:00.197Z,27.00
2022-07-25T18:53:31.977Z,25.80
2022-07-25T18:55:04.744Z,29.00
2022-07-25T18:56:36.895Z,29.60
2022-07-25T18:58:10.031Z,27.60
2022-07-25T18:59:42.123Z,26.00
2022-07-25T19:01:13.996Z,29.00
2022-07-25T19:02:45.901Z,30.80
2022-07-25T19:04:18.671Z,28.80
2022-07-25T19:05:50.490Z,28.20
2022-07-25T19:07:22.356Z,30.00
2022-07-25T19:08:54.177Z,29.40
2022-07-25T19:10:26.172Z,31.20
2022-07-25T19:11:57.974Z,31.20
2022-07-25T19:15:23.724Z,31.00
2022-07-25T19:16:55.557Z,32.20
2022-07-25T19:18:29.518Z,32.40
2022-07-25T19:20:01.428Z,33.20
2022-07-25T19:21:34.277Z,34.20
2022-07-25T19:23:06.145Z,31.80
2022-07-25T19:24:39.097Z,31.60
2022-07-25T19:26:10.996Z,33.20
2022-07-25T19:27:42.736Z,33.20
2022-07-25T19:29:16.472Z,33.60
2022-07-25T19:30:48.462Z,32.20
2022-07-25T19:32:21.059Z,33.20
2022-07-25T19:33:52.787Z,30.40
2022-07-25T19:35:26.384Z,31.20
2022-07-25T19:36:58.314Z,33.20
2022-07-25T19:38:30.189Z,32.00
2022-07-25T19:40:01.928Z,32.80
2022-07-25T19:41:33.806Z,31.20
2022-07-25T19:43:05.539Z,32.40
2022-07-25T19:44:37.265Z,32.80
2022-07-25T19:46:09.040Z,30.80
2022-07-25T19:47:41.049Z,30.20
2022-07-25T19:49:13.266Z,30.80
2022-07-25T19:50:45.656Z,27.40
2022-07-25T19:52:17.483Z,28.20
2022-07-25T19:53:49.216Z,27.60
2022-07-25T19:55:21.590Z,29.40
2022-07-25T19:56:55.220Z,28.00
2022-07-25T19:58:27.091Z,27.00
2022-07-25T19:59:59.017Z,27.00
2022-07-25T20:01:34.419Z,25.00
2022-07-25T20:03:06.233Z,25.00
2022-07-25T20:04:38.157Z,26.20
2022-07-25T20:06:09.995Z,28.00
2022-07-25T20:07:41.889Z,26.20
2022-07-25T20:09:13.833Z,27.60
2022-07-25T20:10:48.117Z,26.40
2022-07-25T20:12:19.879Z,27.00
2022-07-25T20:13:51.719Z,28.60
2022-07-25T20:15:23.559Z,30.20
2022-07-25T20:16:58.179Z,30.00
2022-07-25T20:18:30.213Z,29.40
2022-07-25T20:20:02.922Z,34.20
2022-07-25T20:21:36.809Z,30.00
2022-07-25T20:23:08.699Z,29.00
2022-07-25T20:24:40.621Z,29.20
2022-07-25T20:26:12.988Z,30.40
2022-07-25T20:27:44.745Z,29.60
2022-07-25T20:29:16.760Z,32.00
2022-07-25T20:30:49.784Z,32.20
2022-07-25T20:32:21.964Z,30.60
2022-07-25T20:33:53.781Z,29.20
2022-07-25T20:35:25.630Z,28.60
2022-07-25T20:36:57.337Z,27.40
2022-07-25T20:38:29.208Z,29.40
2022-07-25T20:40:01.006Z,28.20
2022-07-25T20:41:32.859Z,28.20
2022-07-25T20:43:05.012Z,28.20
2022-07-25T20:44:36.854Z,28.60
2022-07-25T20:46:09.630Z,29.60
2022-07-25T20:47:42.123Z,26.20
2022-07-25T20:49:14.447Z,29.20
2022-07-25T20:50:48.922Z,27.60
2022-07-25T20:52:20.769Z,27.80
2022-07-25T20:53:53.409Z,28.20
2022-07-25T20:55:28.472Z,28.00
2022-07-25T20:57:00.846Z,28.00
2022-07-25T20:58:32.781Z,28.20
2022-07-25T21:00:04.901Z,28.80
2022-07-25T21:01:38.564Z,29.20
2022-07-25T21:03:10.445Z,26.60
2022-07-25T21:04:42.366Z,27.60
2022-07-25T21:06:14.194Z,27.00
2022-07-25T21:07:46.007Z,27.80
2022-07-25T21:09:17.853Z,27.40
2022-07-25T21:10:49.701Z,24.40
2022-07-25T21:12:21.533Z,26.00
2022-07-25T21:13:53.336Z,25.40
2022-07-25T21:15:25.159Z,25.00
2022-07-25T21:16:56.943Z,23.80
2022-07-25T21:18:28.775Z,27.00
2022-07-25T21:20:00.707Z,25.80
2022-07-25T21:21:32.551Z,22.80
2022-07-25T21:23:04.897Z,24.00
2022-07-25T21:24:36.741Z,24.00
2022-07-25T21:26:08.549Z,19.80
2022-07-25T21:27:40.380Z,26.20
2022-07-25T21:29:12.371Z,23.20
2022-07-25T21:30:44.233Z,23.00
2022-07-25T21:32:17.439Z,22.40
2022-07-25T21:33:49.407Z,24.60
2022-07-25T21:35:21.253Z,22.20
2022-07-25T21:36:53.105Z,21.00
2022-07-25T21:38:27.535Z,23.00
2022-07-25T21:40:00.197Z,23.40
2022-07-25T21:41:32.021Z,21.00
2022-07-25T21:43:04.907Z,22.00
2022-07-25T21:44:40.740Z,20.20
2022-07-25T21:46:12.541Z,23.00
2022-07-25T21:47:44.455Z,22.80
2022-07-25T21:49:40.968Z,23.00
2022-07-25T21:51:19.260Z,21.80
2022-07-25T21:52:55.346Z,22.00
2022-07-25T21:54:27.138Z,22.00
2022-07-25T21:55:59.034Z,18.20
2022-07-25T21:57:31.283Z,20.20
2022-07-25T21:59:03.285Z,19.80
2022-07-25T22:00:45.197Z,19.00
2022-07-25T22:02:18.244Z,17.80
2022-07-25T22:03:52.073Z,15.40
2022-07-25T22:05:24.231Z,18.60
2022-07-25T22:06:55.948Z,17.60
2022-07-25T22:08:27.829Z,18.00
2022-07-25T22:09:59.675Z,19.60
2022-07-25T22:11:39.126Z,13.00
2022-07-25T22:13:18.313Z,16.00
2022-07-25T22:14:50.103Z,18.00
2022-07-25T22:16:21.932Z,19.00
2022-07-25T22:17:53.880Z,12.20
2022-07-25T22:19:25.641Z,16.60
2022-07-25T22:20:57.375Z,18.00
2022-07-25T22:22:29.074Z,17.40
2022-07-25T22:24:01.072Z,14.40
2022-07-25T22:25:32.923Z,13.40
2022-07-25T22:27:04.779Z,21.00
2022-07-25T22:28:36.523Z,24.00
2022-07-25T22:30:10.533Z,20.80
2022-07-25T22:31:44.608Z,27.40
2022-07-25T22:33:16.382Z,28.00
2022-07-25T22:34:48.151Z,28.00
